Time;durP1;ratioP1;P1;durP2;ratioP2;P2;SDS_P1;SDS_P2;PMS_P1;PMS_P2;Temp;Humidity;BMP_temperature;BMP_pressure;BME280_temperature;BME280_humidity;BME280_pressure;Samples;Min_cycle;Max_cycle;Signal;HPM_P1;HPM_P2
2023/09/15 00:00:59;;;;;;;5.85;3.95;;;;;;;16.62;100.00;100236.25;5072229;28;20028;-87
2023/09/15 00:03:24;;;;;;;5.22;3.97;;;;;;;16.63;100.00;100228.25;5071869;28;20036;-88
2023/09/15 00:05:50;;;;;;;4.22;3.72;;;;;;;16.50;100.00;100214.19;5070952;28;20017;-87
2023/09/15 00:08:16;;;;;;;5.47;3.67;;;;;;;16.61;100.00;100234.56;5070868;28;20020;-87
2023/09/15 00:10:42;;;;;;;7.68;4.75;;;;;;;16.61;100.00;100226.69;5071926;28;20066;-87
2023/09/15 00:13:07;;;;;;;8.63;3.90;;;;;;;16.66;100.00;100241.22;5070703;28;20040;-87
2023/09/15 00:15:34;;;;;;;7.55;4.90;;;;;;;16.59;100.00;100225.91;5070283;28;20094;-87
2023/09/15 00:18:00;;;;;;;6.70;4.15;;;;;;;16.52;100.00;100233.34;5070913;28;20438;-87
2023/09/15 00:20:25;;;;;;;5.60;4.38;;;;;;;16.54;100.00;100241.13;5070387;28;20048;-87
2023/09/15 00:22:53;;;;;;;5.50;4.35;;;;;;;16.48;100.00;100245.00;5070673;28;20074;-87
2023/09/15 00:25:20;;;;;;;7.07;4.22;;;;;;;16.40;100.00;100229.69;5070589;28;20024;-87
2023/09/15 00:27:51;;;;;;;6.43;4.43;;;;;;;16.28;100.00;100230.44;5070529;28;20025;-87
2023/09/15 00:30:18;;;;;;;6.53;4.07;;;;;;;16.40;100.00;100244.63;5070598;28;20051;-87
2023/09/15 00:32:45;;;;;;;5.10;4.50;;;;;;;16.25;100.00;100240.28;5070243;28;20036;-86
2023/09/15 00:35:11;;;;;;;5.25;3.70;;;;;;;16.18;100.00;100224.91;5070451;28;20029;-87
2023/09/15 00:37:36;;;;;;;6.97;4.28;;;;;;;16.30;100.00;100254.00;5070240;28;20490;-87
2023/09/15 00:40:06;;;;;;;6.53;4.28;;;;;;;16.27;100.00;100241.91;5070554;28;20025;-87
2023/09/15 00:42:31;;;;;;;8.55;4.60;;;;;;;16.26;100.00;100237.56;5070223;28;20024;-86
2023/09/15 00:45:00;;;;;;;4.97;4.10;;;;;;;16.27;100.00;100252.41;5070497;28;20378;-87
2023/09/15 00:47:25;;;;;;;5.80;4.47;;;;;;;16.20;100.00;100251.09;5070094;28;20052;-87
2023/09/15 00:49:52;;;;;;;5.47;4.03;;;;;;;16.21;100.00;100237.84;5074454;28;20123;-87
2023/09/15 00:52:17;;;;;;;5.75;4.60;;;;;;;16.15;100.00;100229.50;5075663;28;20020;-86
2023/09/15 00:54:43;;;;;;;7.68;4.45;;;;;;;16.16;100.00;100239.06;5074201;28;20028;-86
2023/09/15 00:57:08;;;;;;;7.32;5.18;;;;;;;16.16;100.00;100239.06;5075543;28;20459;-86
2023/09/15 00:59:34;;;;;;;6.05;5.00;;;;;;;16.15;100.00;100238.22;5075289;28;20034;-86
2023/09/15 01:02:00;;;;;;;8.48;4.45;;;;;;;16.16;100.00;100233.81;5074226;28;20468;-87
2023/09/15 01:04:29;;;;;;;6.20;4.30;;;;;;;16.11;100.00;100247.22;5074000;28;20036;-87
2023/09/15 01:06:57;;;;;;;5.63;4.22;;;;;;;16.06;100.00;100246.66;5074087;28;20494;-87
2023/09/15 01:09:25;;;;;;;5.97;4.18;;;;;;;16.08;100.00;100247.41;5073924;28;20387;-87
2023/09/15 01:11:51;;;;;;;6.18;4.53;;;;;;;16.02;100.00;100234.66;5075353;28;20480;-87
2023/09/15 01:14:17;;;;;;;6.78;4.80;;;;;;;16.08;100.00;100236.88;5073718;28;20045;-87
2023/09/15 01:16:49;;;;;;;5.47;4.13;;;;;;;16.18;100.00;100251.19;5075024;28;20032;-87
2023/09/15 01:19:31;;;;;;;6.93;4.20;;;;;;;16.22;100.00;100254.44;5073839;28;20051;-87
2023/09/15 01:22:08;;;;;;;6.45;4.47;;;;;;;16.23;100.00;100250.06;5074021;28;20028;-87
2023/09/15 01:24:58;;;;;;;6.68;5.10;;;;;;;16.20;100.00;100243.19;5074856;28;20414;-87
2023/09/15 01:27:46;;;;;;;9.70;5.00;;;;;;;16.13;100.00;100249.75;5075044;28;20032;-87
2023/09/15 01:30:11;;;;;;;7.43;5.13;;;;;;;16.07;100.00;100240.47;5073950;28;20379;-87
2023/09/15 01:32:38;;;;;;;5.75;4.65;;;;;;;16.13;100.00;100253.22;5073385;28;20030;-87
2023/09/15 01:35:04;;;;;;;7.03;4.65;;;;;;;16.15;100.00;100256.63;5052267;28;20051;-87
2023/09/15 01:37:30;;;;;;;6.00;4.70;;;;;;;16.08;100.00;100244.78;5035339;28;20075;-87
2023/09/15 01:39:55;;;;;;;5.88;4.78;;;;;;;16.10;100.00;100258.69;5052492;28;20037;-87
2023/09/15 01:42:21;;;;;;;7.43;5.05;;;;;;;16.15;100.00;100253.16;5035654;28;20025;-87
2023/09/15 01:44:46;;;;;;;6.65;5.20;;;;;;;16.16;100.00;100249.56;5035372;28;20083;-87
2023/09/15 01:47:18;;;;;;;9.20;5.07;;;;;;;16.23;100.00;100263.22;5052262;28;20476;-87
2023/09/15 01:49:44;;;;;;;;;;;;;;;16.16;100.00;100257.47;5052334;28;20508;-87
2023/09/15 01:52:11;;;;;;;10.77;7.03;;;;;;;15.96;100.00;100248.13;5035478;28;19991;-87
2023/09/15 01:54:36;;;;;;;7.90;5.95;;;;;;;15.93;100.00;100248.34;5035095;28;20041;-87
2023/09/15 01:57:02;;;;;;;7.45;5.90;;;;;;;15.89;100.00;100237.16;5035256;28;20028;-87
2023/09/15 01:59:27;;;;;;;7.82;5.70;;;;;;;15.95;100.00;100259.59;5034174;28;20048;-87
2023/09/15 02:01:53;;;;;;;7.40;5.43;;;;;;;15.95;100.00;100260.44;5035431;28;20033;-87
2023/09/15 02:04:19;;;;;;;7.10;5.45;;;;;;;16.03;100.00;100256.50;5035177;28;20021;-87
2023/09/15 02:06:44;;;;;;;8.88;5.63;;;;;;;15.86;100.00;100236.50;5069366;28;20036;-87
2023/09/15 02:09:14;;;;;;;7.20;6.03;;;;;;;15.80;100.00;100232.44;5072920;28;20017;-87
2023/09/15 02:11:39;;;;;;;8.02;6.05;;;;;;;15.96;100.00;100259.47;5072754;28;20024;-86
2023/09/15 02:14:04;;;;;;;8.15;6.28;;;;;;;15.87;100.00;100236.38;5072690;28;20049;-88
2023/09/15 02:16:30;;;;;;;9.55;6.45;;;;;;;15.97;100.00;100260.34;5072593;28;20115;-87
2023/09/15 02:18:55;;;;;;;8.63;5.80;;;;;;;15.93;100.00;100250.97;5072787;28;20111;-87
2023/09/15 02:21:20;;;;;;;8.57;5.70;;;;;;;15.80;100.00;100231.56;5072630;28;20043;-87
2023/09/15 02:23:46;;;;;;;7.70;5.43;;;;;;;15.98;100.00;100262.03;5072534;28;20020;-87
2023/09/15 02:26:11;;;;;;;8.20;5.68;;;;;;;15.80;100.00;100232.44;5072662;28;20020;-87
2023/09/15 02:28:36;;;;;;;11.93;6.68;;;;;;;15.88;100.00;100240.69;5073708;28;20028;-87
2023/09/15 02:31:04;;;;;;;7.22;5.40;;;;;;;15.99;100.00;100258.47;5072679;28;20074;-86
2023/09/15 02:33:29;;;;;;;7.90;5.53;;;;;;;15.99;100.00;100255.00;5072456;28;20028;-87
2023/09/15 02:35:54;;;;;;;9.02;5.90;;;;;;;15.91;100.00;100247.56;5073837;28;20056;-87
2023/09/15 02:38:20;;;;;;;8.00;5.93;;;;;;;15.93;100.00;100257.06;5072410;28;20031;-87
2023/09/15 02:40:45;;;;;;;7.03;5.53;;;;;;;15.99;100.00;100253.22;5072212;28;20028;-87
2023/09/15 02:43:10;;;;;;;7.93;5.60;;;;;;;16.01;100.00;100253.94;5051107;28;20514;-86
2023/09/15 02:45:36;;;;;;;7.53;5.28;;;;;;;16.05;100.00;100268.59;5034211;28;20116;-87
2023/09/15 02:48:04;;;;;;;9.52;6.20;;;;;;;16.00;100.00;100267.19;5034423;28;20033;-87
2023/09/15 02:50:30;;;;;;;9.05;6.13;;;;;;;15.91;100.00;100256.28;5050862;28;20100;-87
2023/09/15 02:52:56;;;;;;;8.40;6.57;;;;;;;15.99;100.00;100276.00;5050854;28;20155;-87
2023/09/15 02:55:21;;;;;;;8.65;5.95;;;;;;;15.98;100.00;100275.16;5051068;28;20107;-87
2023/09/15 02:57:51;;;;;;;9.77;6.10;;;;;;;15.80;100.00;100248.22;5033993;28;20029;-87
2023/09/15 03:00:17;;;;;;;7.15;6.03;;;;;;;15.88;100.00;100264.34;5050973;28;20029;-87
2023/09/15 03:02:43;;;;;;;9.43;6.75;;;;;;;15.87;100.00;100260.03;5033956;28;20051;-87
2023/09/15 03:05:09;;;;;;;10.52;6.47;;;;;;;15.88;100.00;100263.50;5051059;28;20021;-87
2023/09/15 03:07:39;;;;;;;8.48;5.90;;;;;;;15.94;100.00;100269.25;5033741;28;20028;-87
2023/09/15 03:10:06;;;;;;;8.52;6.10;;;;;;;15.91;100.00;100269.41;5034138;28;20435;-87
2023/09/15 03:12:31;;;;;;;10.57;5.97;;;;;;;15.84;100.00;100248.84;5050370;28;20767;-87
2023/09/15 03:14:56;;;;;;;8.88;5.75;;;;;;;15.79;100.00;100240.41;5064254;28;20132;-87
2023/09/15 03:17:22;;;;;;;7.63;6.30;;;;;;;15.94;100.00;100269.25;5072830;28;20091;-87
2023/09/15 03:19:47;;;;;;;8.73;6.40;;;;;;;15.99;100.00;100271.59;5071343;28;20039;-87
2023/09/15 03:22:12;;;;;;;9.30;6.63;;;;;;;15.96;100.00;100270.00;5071532;28;20119;-87
2023/09/15 03:24:38;;;;;;;12.60;6.93;;;;;;;15.91;100.00;100268.59;5072597;28;20111;-87
2023/09/15 03:27:03;;;;;;;9.27;7.03;;;;;;;15.93;100.00;100270.19;5071542;28;20018;-87
2023/09/15 03:29:29;;;;;;;12.10;6.55;;;;;;;15.89;100.00;100266.06;5071359;28;20024;-87
2023/09/15 03:31:54;;;;;;;8.95;6.30;;;;;;;15.81;100.00;100264.81;5072425;28;20520;-87
2023/09/15 03:34:19;;;;;;;11.30;7.45;;;;;;;15.81;100.00;100270.91;5072629;28;20468;-87
2023/09/15 03:36:46;;;;;;;9.90;6.88;;;;;;;15.79;100.00;100266.66;5070984;28;20492;-87
2023/09/15 03:39:11;;;;;;;8.68;6.70;;;;;;;15.77;100.00;100265.94;5071202;28;20035;-87
2023/09/15 03:41:37;;;;;;;8.95;6.88;;;;;;;15.60;100.00;100253.75;5072245;28;20463;-87
2023/09/15 03:44:04;;;;;;;10.38;7.72;;;;;;;15.74;100.00;100285.31;5072522;28;20446;-87
2023/09/15 03:46:30;;;;;;;10.50;7.57;;;;;;;15.53;100.00;100255.03;5071123;28;20107;-87
2023/09/15 03:48:55;;;;;;;11.10;6.55;;;;;;;15.61;100.00;100274.66;5070984;28;20102;-87
2023/09/15 03:51:21;;;;;;;10.38;6.57;;;;;;;15.66;100.00;100277.88;5071142;28;20032;-87
2023/09/15 03:53:46;;;;;;;9.63;6.95;;;;;;;15.71;100.00;100280.25;5072032;28;20027;-87
2023/09/15 03:56:12;;;;;;;10.88;7.75;;;;;;;15.64;100.00;100266.63;5070879;28;20415;-87
2023/09/15 03:58:37;;;;;;;8.48;6.45;;;;;;;15.71;100.00;100277.63;5070631;28;20026;-86
2023/09/15 04:01:06;;;;;;;11.10;6.82;;;;;;;15.58;100.00;100258.22;5072166;28;20032;-87
2023/09/15 04:03:33;;;;;;;12.50;8.05;;;;;;;15.67;100.00;100270.84;5070856;28;20121;-87
2023/09/15 04:05:58;;;;;;;12.20;7.50;;;;;;;15.73;100.00;100277.53;5070772;28;20024;-87
2023/09/15 04:08:23;;;;;;;13.20;7.60;;;;;;;15.61;100.00;100272.03;5070754;28;20056;-87
2023/09/15 04:10:49;;;;;;;8.63;6.68;;;;;;;15.56;100.00;100266.19;5071904;28;20040;-87
2023/09/15 04:13:14;;;;;;;9.65;7.32;;;;;;;15.64;100.00;100277.13;5070854;28;20047;-87
2023/09/15 04:15:39;;;;;;;13.10;7.18;;;;;;;15.55;100.00;100264.50;5070264;28;20051;-88
2023/09/15 04:18:08;;;;;;;9.68;7.45;;;;;;;15.58;100.00;100282.69;5070680;28;20024;-87
2023/09/15 04:20:33;;;;;;;10.65;7.93;;;;;;;15.55;100.00;100279.38;5071916;28;20105;-87
2023/09/15 04:22:59;;;;;;;8.73;7.53;;;;;;;15.50;100.00;100274.41;5070051;28;20067;-87
2023/09/15 04:25:24;;;;;;;11.43;7.97;;;;;;;15.47;100.00;100264.94;5070658;28;20411;-87
2023/09/15 04:27:49;;;;;;;10.32;7.15;;;;;;;15.56;100.00;100275.84;5070365;28;20032;-87
2023/09/15 04:30:15;;;;;;;11.10;7.05;;;;;;;15.51;100.00;100263.00;5070926;28;20027;-87
2023/09/15 04:32:41;;;;;;;9.95;6.60;;;;;;;15.63;100.00;100292.94;5070313;28;20027;-87
2023/09/15 04:35:08;;;;;;;9.18;7.20;;;;;;;15.56;100.00;100281.09;5070601;28;20024;-87
2023/09/15 04:37:34;;;;;;;9.57;7.13;;;;;;;15.66;100.00;100295.41;5070397;28;20025;-87
2023/09/15 04:40:01;;;;;;;11.48;7.18;;;;;;;15.57;100.00;100280.16;5070254;28;20081;-86
2023/09/15 04:42:26;;;;;;;12.43;7.25;;;;;;;15.61;100.00;100293.03;5070362;28;20021;-87
2023/09/15 04:44:53;;;;;;;9.50;6.85;;;;;;;15.57;100.00;100288.03;5071421;28;20029;-89
2023/09/15 04:47:35;;;;;;;10.00;7.22;;;;;;;15.59;100.00;100287.03;5070369;28;20357;-88
2023/09/15 04:50:01;;;;;;;9.77;6.88;;;;;;;15.66;100.00;100292.78;5070184;28;20024;-88
2023/09/15 04:52:27;;;;;;;10.52;7.22;;;;;;;15.69;100.00;100295.25;5070341;28;20499;-88
2023/09/15 04:54:53;;;;;;;9.52;7.05;;;;;;;15.70;100.00;100296.94;5070238;28;20480;-87
2023/09/15 04:57:20;;;;;;;8.20;6.68;;;;;;;15.70;100.00;100297.78;5070532;28;20036;-88
2023/09/15 04:59:46;;;;;;;7.07;6.05;;;;;;;15.75;100.00;100305.38;5070234;28;20023;-87
2023/09/15 05:02:13;;;;;;;8.07;6.63;;;;;;;15.70;100.00;100289.91;5070355;28;20445;-88
2023/09/15 05:04:39;;;;;;;10.00;7.22;;;;;;;15.77;100.00;100300.06;5070581;28;20035;-87
2023/09/15 05:07:04;;;;;;;9.00;6.53;;;;;;;15.78;100.00;100301.75;5070248;28;20438;-88
2023/09/15 05:09:29;;;;;;;9.45;6.28;;;;;;;15.74;100.00;100298.44;5071417;28;20103;-88
2023/09/15 05:11:55;;;;;;;9.73;6.47;;;;;;;15.63;100.00;100285.06;5069931;28;20112;-88
2023/09/15 05:14:20;;;;;;;11.80;6.63;;;;;;;15.41;100.00;100260.03;5069978;28;20052;-88
2023/09/15 05:16:45;;;;;;;12.57;6.20;;;;;;;15.79;100.00;100301.66;5069837;28;20434;-88
2023/09/15 05:19:11;;;;;;;7.75;6.20;;;;;;;15.74;100.00;100282.69;5070085;28;20388;-88
2023/09/15 05:21:36;;;;;;;9.60;6.10;;;;;;;15.83;100.00;100292.66;5070009;28;20485;-88
2023/09/15 05:24:02;;;;;;;10.57;7.15;;;;;;;15.86;100.00;100300.38;5069828;28;20028;-88
2023/09/15 05:26:27;;;;;;;7.35;5.82;;;;;;;15.84;100.00;100294.34;5069922;28;20048;-87
2023/09/15 05:28:52;;;;;;;9.63;6.43;;;;;;;15.76;100.00;100288.72;5069762;28;20047;-88
2023/09/15 05:31:20;;;;;;;11.05;7.20;;;;;;;15.90;100.00;100316.81;5070039;28;20024;-87
2023/09/15 05:33:45;;;;;;;10.43;6.45;;;;;;;15.97;100.00;100323.41;5069725;28;20420;-88
2023/09/15 05:36:11;;;;;;;9.85;6.32;;;;;;;16.04;100.00;100316.84;5072477;28;20101;-88
2023/09/15 05:38:36;;;;;;;7.53;6.35;;;;;;;16.07;100.00;100307.94;5073528;28;20052;-88
2023/09/15 05:41:03;;;;;;;9.35;6.57;;;;;;;16.06;100.00;100314.97;5051918;28;20055;-88
2023/09/15 05:43:28;;;;;;;9.40;6.70;;;;;;;16.14;100.00;100319.78;5035501;28;20032;-88
2023/09/15 05:45:56;;;;;;;11.45;7.10;;;;;;;16.12;100.00;100305.88;5035363;28;20138;-88
2023/09/15 05:48:23;;;;;;;8.35;6.28;;;;;;;16.26;100.00;100324.28;5035769;28;20456;-88
2023/09/15 05:50:51;;;;;;;9.02;5.60;;;;;;;16.30;100.00;100315.28;5051976;28;20037;-88
2023/09/15 05:53:17;;;;;;;9.02;6.00;;;;;;;16.41;100.00;100328.66;5035549;28;20028;-88
2023/09/15 05:55:42;;;;;;;9.35;6.20;;;;;;;16.41;100.00;100326.03;5035050;28;20037;-88
2023/09/15 05:58:07;;;;;;;9.25;6.40;;;;;;;16.48;100.00;100333.56;5035390;28;20032;-88
2023/09/15 06:00:33;;;;;;;11.75;6.57;;;;;;;16.40;100.00;100331.38;5035226;28;20034;-88
2023/09/15 06:02:58;;;;;;;10.20;5.90;;;;;;;16.36;100.00;100314.09;5035035;28;20032;-88
2023/09/15 06:05:25;;;;;;;9.43;6.55;;;;;;;16.56;100.00;100326.91;5035372;28;20059;-88
2023/09/15 06:07:52;;;;;;;12.40;6.13;;;;;;;16.68;100.00;100335.81;5034913;28;20427;-89
2023/09/15 06:10:17;;;;;;;9.77;6.53;;;;;;;16.65;100.00;100317.59;5035203;28;20021;-88
2023/09/15 06:12:43;;;;;;;10.38;7.25;;;;;;;16.79;100.00;100340.44;5069322;28;20404;-88
2023/09/15 06:15:09;;;;;;;8.32;5.75;;;;;;;16.81;100.00;100326.28;5072777;28;20071;-88
2023/09/15 06:17:35;;;;;;;7.43;6.30;;;;;;;16.94;100.00;100339.50;5072715;28;20035;-89
2023/09/15 06:20:00;;;;;;;7.63;6.28;;;;;;;16.94;100.00;100343.00;5073790;28;20021;-88
2023/09/15 06:22:26;;;;;;;7.68;5.85;;;;;;;16.91;100.00;100334.44;5072225;28;20028;-89
2023/09/15 06:24:52;;;;;;;11.25;6.82;;;;;;;17.00;100.00;100338.28;5072420;28;20021;-88
2023/09/15 06:27:17;;;;;;;8.60;6.05;;;;;;;17.07;100.00;100345.69;5072695;28;20154;-89
2023/09/15 06:29:43;;;;;;;9.23;5.72;;;;;;;17.21;100.00;100339.56;5072488;28;20178;-88
2023/09/15 06:32:09;;;;;;;8.25;6.10;;;;;;;17.41;100.00;100346.22;5072624;28;20028;-89
2023/09/15 06:34:34;;;;;;;9.43;6.20;;;;;;;17.48;100.00;100344.84;5072529;28;20111;-89
2023/09/15 06:37:01;;;;;;;10.30;5.70;;;;;;;17.76;100.00;100343.94;5072160;28;20021;-89
2023/09/15 06:39:27;;;;;;;10.27;5.68;;;;;;;18.00;100.00;100333.59;5072397;28;20047;-89
2023/09/15 06:41:53;;;;;;;8.07;5.53;;;;;;;18.15;100.00;100334.34;5072227;28;20021;-90
2023/09/15 06:44:19;;;;;;;8.15;5.32;;;;;;;18.35;100.00;100338.28;5072412;28;20566;-89
2023/09/15 06:46:45;;;;;;;8.10;5.43;;;;;;;18.56;100.00;100328.06;5071652;28;20064;-89
2023/09/15 06:49:11;;;;;;;6.97;5.88;;;;;;;18.82;100.00;100331.53;5072315;28;20173;-89
2023/09/15 06:51:36;;;;;;;7.53;5.35;;;;;;;19.15;100.00;100344.16;5072233;28;20472;-84
2023/09/15 06:54:01;;;;;;;8.55;5.55;;;;;;;19.47;100.00;100339.22;5073235;28;20375;-88
2023/09/15 06:56:27;;;;;;;7.70;5.20;;;;;;;20.00;100.00;100342.34;5071930;28;20429;-87
2023/09/15 06:58:53;;;;;;;11.40;6.35;;;;;;;20.48;96.79;100338.75;5071809;28;20021;-88
2023/09/15 07:01:18;;;;;;;7.78;5.70;;;;;;;20.52;94.71;100345.53;5071980;28;20384;-87
2023/09/15 07:03:44;;;;;;;6.25;4.82;;;;;;;20.41;96.05;100338.38;5065311;28;20104;-88
2023/09/15 08:00:13;;;;;;;7.95;5.88;;;;;;;18.75;100.00;100372.50;5077279;28;20070;-88
2023/09/15 08:02:39;;;;;;;6.13;5.53;;;;;;;18.85;100.00;100366.50;5070883;28;20090;-88
2023/09/15 08:05:05;;;;;;;10.13;6.28;;;;;;;18.97;100.00;100367.44;5070574;28;20032;-88
2023/09/15 08:07:30;;;;;;;11.55;6.07;;;;;;;19.22;100.00;100365.72;5067060;28;20026;-88
2023/09/15 08:09:56;;;;;;;8.52;5.45;;;;;;;19.47;100.00;100363.00;5069258;28;20107;-88
2023/09/15 08:12:23;;;;;;;6.60;5.18;;;;;;;19.75;100.00;100364.47;5070718;28;20047;-89
2023/09/15 08:14:49;;;;;;;6.43;5.18;;;;;;;20.00;100.00;100357.38;5054343;28;20051;-88
2023/09/15 08:17:16;;;;;;;8.05;5.47;;;;;;;20.30;99.64;100367.44;5050219;28;20492;-88
2023/09/15 08:19:42;;;;;;;6.18;4.90;;;;;;;20.22;98.82;100356.59;5048265;28;20086;-88
2023/09/15 08:22:08;;;;;;;7.72;4.72;;;;;;;19.90;99.53;100368.66;5031237;28;20581;-88
2023/09/15 08:24:33;;;;;;;7.50;5.07;;;;;;;19.87;99.21;100373.31;5031838;28;20037;-88
2023/09/15 08:26:59;;;;;;;5.10;4.60;;;;;;;19.89;99.35;100376.69;5047772;28;20469;-87
2023/09/15 08:29:24;;;;;;;11.18;6.07;;;;;;;19.86;99.36;100358.41;5031900;28;20037;-88
2023/09/15 08:31:49;;;;;;;9.20;5.45;;;;;;;20.09;98.65;100357.53;5047805;28;20049;-87
2023/09/15 08:34:15;;;;;;;9.95;5.28;;;;;;;20.32;97.72;100358.47;5049055;28;20045;-88
2023/09/15 08:36:41;;;;;;;10.35;5.43;;;;;;;20.47;95.22;100356.44;5048843;28;20025;-88
2023/09/15 08:39:06;;;;;;;5.18;4.45;;;;;;;20.57;94.21;100372.50;5048718;28;20039;-88
2023/09/15 08:41:39;;;;;;;5.20;3.78;;;;;;;20.68;95.95;100365.38;5048819;28;20024;-88
2023/09/15 08:44:09;;;;;;;9.80;3.47;;;;;;;21.01;95.83;100371.66;5032252;28;20029;-88
2023/09/15 08:46:37;;;;;;;6.70;3.92;;;;;;;21.18;93.51;100352.63;5032101;28;20032;-88
2023/09/15 08:49:05;;;;;;;6.10;4.25;;;;;;;21.32;89.59;100353.38;5048697;28;20056;-88
2023/09/15 08:51:31;;;;;;;6.03;5.25;;;;;;;21.07;89.16;100370.34;5065722;28;20041;-88
2023/09/15 08:53:57;;;;;;;9.88;5.07;;;;;;;21.03;90.62;100371.56;5071205;28;20035;-88
2023/09/15 08:56:23;;;;;;;7.15;4.32;;;;;;;20.88;90.61;100377.09;5069747;28;20404;-89
2023/09/15 08:58:49;;;;;;;9.23;4.35;;;;;;;20.46;91.80;100357.41;5069827;28;20383;-88
2023/09/15 09:01:16;;;;;;;6.03;4.03;;;;;;;20.29;92.43;100368.41;5070825;28;20028;-88
2023/09/15 09:03:42;;;;;;;10.80;3.95;;;;;;;20.04;94.30;100335.88;5069998;28;20510;-89
2023/09/15 09:06:09;;;;;;;7.70;4.53;;;;;;;20.31;94.62;100363.84;5069509;28;20353;-89
2023/09/15 09:08:40;;;;;;;6.35;4.32;;;;;;;20.53;94.67;100342.78;5069978;28;20028;-89
2023/09/15 09:11:05;;;;;;;6.43;4.32;;;;;;;20.74;94.11;100355.31;5073314;28;20051;-88
2023/09/15 09:13:31;;;;;;;7.32;4.05;;;;;;;20.76;93.53;100356.84;5073807;28;20067;-89
2023/09/15 09:15:56;;;;;;;9.02;4.20;;;;;;;20.80;94.18;100355.66;5073654;28;20028;-88
2023/09/15 09:18:22;;;;;;;6.65;4.30;;;;;;;20.69;92.57;100363.63;5073845;28;20491;-87
2023/09/15 09:20:50;;;;;;;7.68;4.07;;;;;;;20.53;92.12;100358.66;5073804;28;20028;-89
2023/09/15 09:23:18;;;;;;;6.60;4.00;;;;;;;20.30;91.19;100364.81;5072796;28;20024;-91
2023/09/15 09:25:44;;;;;;;3.70;3.33;;;;;;;20.08;92.76;100363.78;5073830;28;20035;-90
2023/09/15 09:28:09;;;;;;;5.55;3.60;;;;;;;19.96;93.38;100355.94;5073681;28;20021;-89
2023/09/15 09:30:34;;;;;;;10.57;3.75;;;;;;;19.86;93.77;100369.00;5074014;28;20025;-89
2023/09/15 09:33:00;;;;;;;7.20;3.90;;;;;;;19.79;93.87;100360.66;5073630;28;20036;-90
2023/09/15 09:35:26;;;;;;;5.85;3.30;;;;;;;19.88;93.85;100367.06;5073776;28;20020;-90
2023/09/15 09:37:53;;;;;;;5.07;3.40;;;;;;;19.84;92.95;100365.59;5073734;28;20029;-91
2023/09/15 09:40:20;;;;;;;3.40;3.10;;;;;;;19.96;92.99;100366.50;5073480;28;20024;-91
2023/09/15 09:42:50;;;;;;;4.75;3.53;;;;;;;19.74;93.30;100344.31;5073670;28;20111;-90
2023/09/15 09:45:16;;;;;;;4.78;2.63;;;;;;;19.69;91.96;100359.66;5073360;28;20154;-90
2023/09/15 09:47:45;;;;;;;5.00;3.25;;;;;;;19.69;91.46;100360.50;5073537;28;20050;-90
2023/09/15 09:50:11;;;;;;;5.00;3.17;;;;;;;19.63;92.14;100320.44;5073215;28;20052;-89
2023/09/15 09:52:38;;;;;;;4.07;3.33;;;;;;;20.03;89.72;100358.00;5073513;28;20028;-90
2023/09/15 09:55:08;;;;;;;3.95;2.53;;;;;;;20.19;88.87;100349.78;5073357;28;20024;-90
2023/09/15 09:57:36;;;;;;;3.90;2.88;;;;;;;20.36;88.65;100349.31;5073350;28;20502;-90
2023/09/15 10:00:03;;;;;;;4.82;2.70;;;;;;;20.53;89.34;100350.72;5073135;28;20487;-90
2023/09/15 10:02:29;;;;;;;4.57;2.53;;;;;;;20.66;86.23;100359.38;5074675;28;20028;-91
2023/09/15 10:04:55;;;;;;;3.55;2.42;;;;;;;20.74;84.96;100334.13;5073216;28;20107;-90
2023/09/15 10:07:21;;;;;;;3.72;2.78;;;;;;;20.91;83.85;100323.06;5073230;28;20111;-90
2023/09/15 10:09:47;;;;;;;3.95;2.70;;;;;;;21.16;82.47;100354.56;5073062;28;20020;-90
2023/09/15 10:12:14;;;;;;;5.13;2.60;;;;;;;21.15;82.36;100355.56;5073668;28;20016;-91
2023/09/15 10:14:40;;;;;;;3.17;2.53;;;;;;;21.02;83.28;100323.03;5073005;28;20028;-90
2023/09/15 10:17:06;;;;;;;3.88;2.70;;;;;;;21.20;83.08;100333.97;5072794;28;20021;-91
2023/09/15 10:19:32;;;;;;;8.10;3.60;;;;;;;21.35;81.55;100337.22;5072854;28;20021;-90
2023/09/15 10:21:58;;;;;;;7.47;3.40;;;;;;;21.37;79.94;100327.34;5071970;28;20027;-90
2023/09/15 10:24:26;;;;;;;5.18;3.65;;;;;;;21.54;79.99;100336.59;5072878;28;20028;-90
2023/09/15 10:26:52;;;;;;;4.18;3.05;;;;;;;21.44;79.49;100317.94;5073027;28;20024;-90
2023/09/15 10:29:17;;;;;;;10.43;2.85;;;;;;;21.41;78.88;100312.91;5072744;28;20456;-91
2023/09/15 10:31:46;;;;;;;6.43;3.88;;;;;;;21.47;77.85;100323.00;5072601;28;20052;-90
2023/09/15 10:34:14;;;;;;;6.32;2.70;;;;;;;21.53;77.32;100311.03;5072468;28;20111;-91
2023/09/15 10:36:40;;;;;;;4.13;2.88;;;;;;;21.69;77.78;100327.38;5072807;28;20115;-91
2023/09/15 10:39:17;;;;;;;3.42;2.80;;;;;;;21.77;76.60;100327.56;5072203;28;20732;-90
2023/09/15 10:41:43;;;;;;;4.13;2.58;;;;;;;21.72;76.51;100323.63;5072515;28;20020;-90
2023/09/15 10:44:08;;;;;;;3.80;2.50;;;;;;;21.64;76.90;100319.78;5066491;28;20514;-90
2023/09/15 10:46:42;;;;;;;3.50;2.40;;;;;;;21.66;77.05;100325.81;5051966;28;20067;-91
2023/09/15 10:49:18;;;;;;;3.65;2.90;;;;;;;21.59;77.39;100332.59;5051907;28;20460;-89
2023/09/15 10:52:00;;;;;;;4.55;2.42;;;;;;;21.55;78.15;100315.25;5052041;28;20411;-90
2023/09/15 10:54:30;;;;;;;5.88;3.20;;;;;;;21.71;76.56;100322.78;5052194;28;20079;-90
2023/09/15 10:56:56;;;;;;;3.88;2.35;;;;;;;21.61;76.48;100335.94;5052414;28;20029;-91
2023/09/15 10:59:22;;;;;;;4.25;2.50;;;;;;;21.52;76.06;100335.84;5052156;28;20021;-90
2023/09/15 11:01:47;;;;;;;5.13;3.55;;;;;;;21.47;77.11;100324.78;5052041;28;20032;-91
2023/09/15 11:04:17;;;;;;;3.65;2.60;;;;;;;21.54;77.31;100328.66;5051706;28;20597;-90
2023/09/15 11:06:51;;;;;;;4.38;2.97;;;;;;;21.51;77.30;100329.72;5051572;28;20541;-90
2023/09/15 11:09:17;;;;;;;3.60;2.90;;;;;;;21.52;77.42;100331.41;5051477;28;20025;-90
2023/09/15 11:11:45;;;;;;;5.25;4.15;;;;;;;21.51;77.23;100323.59;5051750;28;20074;-90
2023/09/15 11:14:16;;;;;;;6.47;3.20;;;;;;;21.37;76.45;100277.84;5051659;28;20129;-91
2023/09/15 11:16:44;;;;;;;5.57;4.20;;;;;;;21.40;77.06;100268.78;5051274;28;20044;-91
2023/09/15 11:19:10;;;;;;;4.80;2.70;;;;;;;21.67;76.96;100303.66;5051165;28;20051;-90
2023/09/15 11:21:36;;;;;;;5.13;2.90;;;;;;;21.77;77.79;100313.47;5051337;28;20384;-90
2023/09/15 11:24:02;;;;;;;12.52;6.10;;;;;;;21.67;76.88;100314.25;5051082;28;20021;-91
2023/09/15 11:26:29;;;;;;;9.88;6.22;;;;;;;21.53;76.94;100301.28;5051582;28;20020;-90
2023/09/15 11:28:54;;;;;;;4.90;3.53;;;;;;;21.78;76.64;100315.16;5050931;28;20024;-90
2023/09/15 11:31:21;;;;;;;6.90;4.72;;;;;;;21.88;77.03;100306.31;5052282;28;20102;-90
2023/09/15 11:33:46;;;;;;;11.85;7.40;;;;;;;21.82;76.32;100306.81;5053243;28;20095;-91
2023/09/15 11:36:13;;;;;;;5.43;3.85;;;;;;;21.93;77.10;100296.16;5061060;28;20021;-91
2023/09/15 11:38:38;;;;;;;6.00;4.03;;;;;;;21.54;76.48;100225.28;5065030;28;20041;-91
2023/09/15 11:41:05;;;;;;;8.95;3.88;;;;;;;21.93;75.98;100300.63;5049721;28;20033;-91
2023/09/15 11:43:30;;;;;;;6.38;2.85;;;;;;;21.80;76.51;100292.03;5050211;28;20630;-90
2023/09/15 11:45:56;;;;;;;5.00;3.25;;;;;;;21.87;75.77;100309.94;5049941;28;20122;-91
2023/09/15 11:48:22;;;;;;;3.88;2.72;;;;;;;21.93;77.33;100303.28;5049768;28;20043;-91
2023/09/15 11:50:48;;;;;;;6.57;3.35;;;;;;;21.77;75.71;100311.66;5050271;28;20037;-91
2023/09/15 11:53:13;;;;;;;5.93;3.38;;;;;;;21.77;75.52;100310.84;5033613;28;20070;-91
2023/09/15 11:55:39;;;;;;;3.65;2.90;;;;;;;21.78;75.10;100312.50;5033297;28;20033;-91
2023/09/15 11:58:05;;;;;;;3.20;2.88;;;;;;;21.82;75.27;100309.47;5033058;28;20082;-90
2023/09/15 12:00:32;;;;;;;4.63;3.35;;;;;;;21.83;74.92;100299.72;5033086;28;20139;-91
2023/09/15 12:02:59;;;;;;;8.02;5.50;;;;;;;21.84;76.26;100304.91;5049616;28;20028;-90
2023/09/15 12:05:29;;;;;;;16.17;8.95;;;;;;;21.64;76.74;100300.41;5049675;28;20029;-91
2023/09/15 12:07:55;;;;;;;6.18;3.50;;;;;;;21.57;76.99;100300.03;5033133;28;20369;-90
2023/09/15 12:10:22;;;;;;;5.15;3.13;;;;;;;21.41;77.04;100299.66;5040923;28;20024;-90